createdAt,value
2017-02-24T00:06:09.631Z,99.99
2017-02-24T00:16:09.621Z,99.99
2017-02-24T00:26:09.760Z,99.99
2017-02-24T00:36:09.701Z,99.99
2017-02-24T00:46:09.670Z,99.99
2017-02-24T00:56:09.658Z,99.99
2017-02-24T01:06:09.671Z,99.99
2017-02-24T01:16:09.757Z,99.99
2017-02-24T01:26:09.685Z,99.99
2017-02-24T01:36:09.779Z,99.99
2017-02-24T01:46:09.690Z,99.99
2017-02-24T01:56:09.714Z,99.99
2017-02-24T02:06:09.770Z,99.99
2017-02-24T02:16:09.717Z,99.99
2017-02-24T02:26:09.735Z,99.99
2017-02-24T02:36:09.775Z,99.99
2017-02-24T02:46:09.755Z,99.99
2017-02-24T02:56:09.749Z,99.99
2017-02-24T03:06:09.828Z,99.99
2017-02-24T03:16:09.762Z,99.99
2017-02-24T03:26:09.784Z,99.99
2017-02-24T03:36:09.793Z,99.99
2017-02-24T03:46:09.778Z,99.99
2017-02-24T03:56:09.840Z,99.99
2017-02-24T04:06:09.795Z,99.99
2017-02-24T04:16:09.827Z,99.99
2017-02-24T04:26:09.819Z,99.99
2017-02-24T04:36:09.821Z,99.99
2017-02-24T04:46:09.870Z,99.99
2017-02-24T04:56:09.821Z,99.99
2017-02-24T05:06:09.845Z,99.99
2017-02-24T05:16:09.924Z,99.99
2017-02-24T05:26:09.858Z,99.99
2017-02-24T05:36:09.858Z,99.99
2017-02-24T05:46:09.867Z,99.99
2017-02-24T05:56:09.892Z,99.99
2017-02-24T06:06:09.872Z,99.99
2017-02-24T06:16:09.998Z,99.99
2017-02-24T06:26:09.956Z,99.99
2017-02-24T06:36:09.921Z,99.99
2017-02-24T06:46:09.921Z,99.99
2017-02-24T06:56:09.938Z,99.99
2017-02-24T07:06:10.015Z,99.99
2017-02-24T07:16:09.959Z,99.99
2017-02-24T07:26:10.029Z,99.99
2017-02-24T07:36:09.935Z,99.99
2017-02-24T07:46:10.072Z,99.99
2017-02-24T07:56:09.983Z,99.99
2017-02-24T08:06:10.090Z,99.99
2017-02-24T08:16:10.093Z,99.99
2017-02-24T08:26:09.998Z,99.99
2017-02-24T08:36:10.027Z,99.99
2017-02-24T08:46:10.052Z,99.99
2017-02-24T08:56:10.012Z,99.99
2017-02-24T09:06:10.036Z,99.99
2017-02-24T09:16:10.029Z,99.99
2017-02-24T09:26:10.042Z,99.99
2017-02-24T09:36:10.055Z,99.99
2017-02-24T09:46:10.093Z,99.99
2017-02-24T09:56:10.073Z,99.99
2017-02-24T10:06:10.091Z,99.99
2017-02-24T10:16:10.090Z,99.99
2017-02-24T10:26:10.081Z,99.99
2017-02-24T10:36:10.461Z,99.99
2017-02-24T10:46:10.097Z,99.99
2017-02-24T10:56:10.140Z,91.37
2017-02-24T11:06:10.126Z,91.37
2017-02-24T11:16:10.131Z,86.14
2017-02-24T11:26:10.211Z,80.86
2017-02-24T11:36:10.142Z,75.7
2017-02-24T11:46:10.142Z,78.65
2017-02-24T11:56:10.159Z,72.02
2017-02-24T12:06:10.242Z,72.16
2017-02-24T12:16:10.200Z,77.01
2017-02-24T12:26:10.195Z,86.08
2017-02-24T12:36:10.195Z,85.14
2017-02-24T12:46:10.227Z,83.52
2017-02-24T12:56:10.261Z,82.95
2017-02-24T13:06:10.232Z,77.15
2017-02-24T13:16:10.275Z,80.04
2017-02-24T13:26:10.359Z,80.9
2017-02-24T13:36:10.337Z,82
2017-02-24T13:46:10.269Z,83.04
2017-02-24T13:56:10.357Z,85
2017-02-24T14:06:10.408Z,85.81
2017-02-24T14:16:10.290Z,79.96
2017-02-24T14:26:10.351Z,76.67
2017-02-24T14:36:10.298Z,77.15
2017-02-24T14:46:10.359Z,76.82
2017-02-24T14:56:10.330Z,70.45
2017-02-24T15:06:10.364Z,69.15
2017-02-24T15:16:10.361Z,68.43
2017-02-24T15:26:10.353Z,62.05
2017-02-24T15:36:10.343Z,65
2017-02-24T15:46:11.088Z,69.06
2017-02-24T15:56:10.409Z,77.34
2017-02-24T16:06:10.450Z,81.86
2017-02-24T16:16:10.438Z,83.19
2017-02-24T16:26:10.434Z,86.24
2017-02-24T16:36:11.730Z,90.99
2017-02-24T16:46:10.430Z,93.75
2017-02-24T16:56:10.450Z,98.73
2017-02-24T17:06:10.449Z,99.99
2017-02-24T17:16:10.464Z,99.99
2017-02-24T17:26:10.481Z,99.99
2017-02-24T17:36:10.460Z,99.99
2017-02-24T17:46:10.476Z,99.99
2017-02-24T17:56:10.529Z,99.99
2017-02-24T18:06:10.591Z,99.99
2017-02-24T18:16:10.505Z,99.99
2017-02-24T18:26:10.484Z,99.99
2017-02-24T18:36:10.517Z,99.99
2017-02-24T18:46:10.632Z,99.99
2017-02-24T18:56:10.545Z,99.99
2017-02-24T19:06:13.182Z,99.99
2017-02-24T19:16:10.638Z,99.99
2017-02-24T19:26:10.556Z,99.99
2017-02-24T19:36:10.556Z,99.99
2017-02-24T19:46:10.551Z,99.99
2017-02-24T19:56:10.570Z,99.99
2017-02-24T20:06:10.560Z,99.99
2017-02-24T20:16:10.691Z,99.99
2017-02-24T20:26:10.640Z,99.99
2017-02-24T20:36:10.603Z,99.99
2017-02-24T20:46:10.685Z,99.99
2017-02-24T20:56:10.613Z,99.99
2017-02-24T21:06:10.676Z,99.99
2017-02-24T21:16:10.665Z,99.99
2017-02-24T21:26:10.651Z,99.99
2017-02-24T21:36:10.744Z,99.99
2017-02-24T21:46:11.329Z,99.99
2017-02-24T21:56:10.722Z,99.99
2017-02-24T22:06:10.771Z,99.99
2017-02-24T22:16:10.724Z,99.99
2017-02-24T22:26:10.686Z,99.99
2017-02-24T22:36:11.753Z,99.99
2017-02-24T22:46:10.737Z,99.99
2017-02-24T22:56:10.780Z,99.99
2017-02-24T23:06:10.699Z,99.99
2017-02-24T23:16:10.723Z,99.99
2017-02-24T23:26:10.775Z,99.99
2017-02-24T23:36:11.418Z,99.99
2017-02-24T23:46:10.765Z,99.99
2017-02-24T23:56:10.719Z,99.99
